Time;durP1;ratioP1;P1;durP2;ratioP2;P2;SDS_P1;SDS_P2;PMS_P1;PMS_P2;Temp;Humidity;BMP_temperature;BMP_pressure;BME280_temperature;BME280_humidity;BME280_pressure;Samples;Min_cycle;Max_cycle;Signal;HPM_P1;HPM_P2
2023/06/18 00:01:57;;;;;;;10.40;9.40;;;;;;;;;;4982756;28;20995;-61
2023/06/18 00:04:25;;;;;;;9.30;8.40;;;;;;;;;;4963228;28;20439;-61
2023/06/18 00:06:55;;;;;;;9.30;8.40;;;;;;;;;;4963282;28;20439;-69
2023/06/18 00:09:22;;;;;;;10.02;8.43;;;;;;;;;;4957976;28;20443;-69
2023/06/18 00:11:49;;;;;;;10.02;8.57;;;;;;;;;;4963792;28;20436;-70
2023/06/18 00:14:17;;;;;;;10.27;8.60;;;;;;;;;;4957533;28;20444;-69
2023/06/18 00:16:44;;;;;;;9.63;8.73;;;;;;;;;;4961082;28;20451;-69
2023/06/18 00:19:11;;;;;;;9.48;8.57;;;;;;;;;;4957330;28;20855;-70
2023/06/18 00:21:38;;;;;;;8.50;7.80;;;;;;;;;;4967633;28;20442;-69
2023/06/18 00:24:07;;;;;;;8.83;8.03;;;;;;;;;;4966141;28;20501;-70
2023/06/18 00:26:34;;;;;;;10.52;8.20;;;;;;;;;;4964728;28;20436;-69
2023/06/18 00:29:02;;;;;;;8.70;8.00;;;;;;;;;;4966820;28;20440;-69
2023/06/18 00:31:32;;;;;;;8.48;7.68;;;;;;;;;;4964874;28;20814;-69
2023/06/18 00:34:04;;;;;;;9.70;7.43;;;;;;;;;;4966838;28;20706;-69
2023/06/18 00:36:32;;;;;;;8.85;8.05;;;;;;;;;;4966120;28;20443;-69
2023/06/18 00:38:59;;;;;;;7.50;6.80;;;;;;;;;;4995191;28;20425;-69
2023/06/18 00:41:27;;;;;;;8.57;7.78;;;;;;;;;;4980223;28;20447;-70
2023/06/18 00:43:57;;;;;;;7.82;7.10;;;;;;;;;;4960324;28;20940;-69
2023/06/18 00:46:25;;;;;;;8.15;7.35;;;;;;;;;;4965993;28;20520;-69
2023/06/18 00:48:52;;;;;;;8.43;7.63;;;;;;;;;;4968255;28;20845;-70
2023/06/18 00:51:21;;;;;;;9.15;7.82;;;;;;;;;;4962932;28;20928;-69
2023/06/18 00:53:48;;;;;;;8.68;7.88;;;;;;;;;;4966539;28;20925;-69
2023/06/18 00:56:15;;;;;;;8.65;7.75;;;;;;;;;;4964241;28;20442;-69
2023/06/18 00:58:47;;;;;;;8.00;7.20;;;;;;;;;;4964239;28;21104;-70
2023/06/18 01:01:14;;;;;;;9.25;8.35;;;;;;;;;;4965396;28;20930;-69
2023/06/18 01:03:42;;;;;;;8.10;7.30;;;;;;;;;;4970310;28;20444;-69
2023/06/18 01:06:11;;;;;;;8.00;7.20;;;;;;;;;;4967506;28;20482;-69
2023/06/18 01:08:38;;;;;;;7.85;7.05;;;;;;;;;;4954845;28;20421;-70
2023/06/18 01:11:06;;;;;;;8.13;7.43;;;;;;;;;;4967210;28;20437;-69
2023/06/18 01:13:39;;;;;;;9.68;7.57;;;;;;;;;;4967847;28;20907;-69
2023/06/18 01:16:09;;;;;;;8.63;7.82;;;;;;;;;;4978126;28;20517;-69
2023/06/18 01:18:41;;;;;;;9.10;8.30;;;;;;;;;;4966499;28;20436;-69
2023/06/18 01:21:11;;;;;;;9.88;8.98;;;;;;;;;;4963005;28;20448;-69
2023/06/18 01:23:49;;;;;;;10.20;9.20;;;;;;;;;;4986002;28;20635;-69
2023/06/18 01:26:20;;;;;;;11.13;10.23;;;;;;;;;;4969358;28;20519;-68
2023/06/18 01:28:48;;;;;;;10.80;9.70;;;;;;;;;;4968002;28;20423;-69
2023/06/18 01:31:20;;;;;;;10.00;9.10;;;;;;;;;;4966609;28;20440;-70
2023/06/18 01:33:51;;;;;;;9.60;8.65;;;;;;;;;;4964333;28;20796;-70
2023/06/18 01:36:24;;;;;;;9.65;8.35;;;;;;;;;;4966161;28;20452;-69
2023/06/18 01:38:53;;;;;;;8.73;7.82;;;;;;;;;;4964813;28;20857;-70
2023/06/18 01:41:26;;;;;;;7.93;7.22;;;;;;;;;;4981237;28;20431;-69
2023/06/18 01:43:55;;;;;;;9.00;7.55;;;;;;;;;;5027466;28;20972;-69
2023/06/18 01:46:24;;;;;;;8.57;7.75;;;;;;;;;;4984146;28;20454;-69
2023/06/18 01:48:53;;;;;;;8.88;8.18;;;;;;;;;;4975604;28;20447;-69
2023/06/18 01:51:21;;;;;;;9.45;8.55;;;;;;;;;;4965434;28;20436;-69
2023/06/18 01:53:49;;;;;;;8.45;7.75;;;;;;;;;;4963343;28;20421;-69
2023/06/18 01:56:17;;;;;;;7.75;6.95;;;;;;;;;;4966639;28;20455;-69
2023/06/18 01:58:44;;;;;;;8.50;7.70;;;;;;;;;;4962807;28;20436;-69
2023/06/18 02:01:12;;;;;;;9.30;8.50;;;;;;;;;;4977915;28;20436;-69
2023/06/18 02:03:41;;;;;;;8.68;7.40;;;;;;;;;;4964677;28;20463;-70
2023/06/18 02:06:09;;;;;;;8.15;7.00;;;;;;;;;;4989147;22;20398;-76
2023/06/18 02:08:36;;;;;;;7.90;7.20;;;;;;;;;;4992980;28;20578;-76
2023/06/18 02:11:04;;;;;;;7.95;7.15;;;;;;;;;;4995313;28;20444;-76
2023/06/18 02:13:31;;;;;;;7.83;7.10;;;;;;;;;;4986303;28;20533;-76
2023/06/18 02:15:58;;;;;;;8.10;7.30;;;;;;;;;;4987970;28;21036;-76
2023/06/18 02:18:25;;;;;;;9.88;7.15;;;;;;;;;;4993147;28;20448;-76
2023/06/18 02:20:53;;;;;;;7.85;7.15;;;;;;;;;;4993529;28;20463;-77
2023/06/18 02:23:20;;;;;;;7.90;7.15;;;;;;;;;;4988589;28;20446;-76
2023/06/18 02:25:48;;;;;;;8.30;7.60;;;;;;;;;;4987166;28;20441;-76
2023/06/18 02:28:15;;;;;;;7.78;6.97;;;;;;;;;;4994393;28;20786;-76
2023/06/18 02:30:43;;;;;;;9.55;7.55;;;;;;;;;;4994602;28;20440;-76
2023/06/18 02:33:11;;;;;;;7.73;7.03;;;;;;;;;;4995473;28;21236;-76
2023/06/18 02:35:38;;;;;;;8.60;7.80;;;;;;;;;;5000773;28;20448;-76
2023/06/18 02:38:06;;;;;;;8.30;7.15;;;;;;;;;;4995891;28;20433;-76
2023/06/18 02:40:34;;;;;;;7.93;7.22;;;;;;;;;;4998636;28;20449;-76
2023/06/18 02:43:05;;;;;;;8.05;7.25;;;;;;;;;;5004544;28;20433;-76
2023/06/18 02:45:32;;;;;;;8.77;7.88;;;;;;;;;;5002864;28;20508;-76
2023/06/18 02:47:59;;;;;;;8.10;7.30;;;;;;;;;;4995218;28;20441;-76
2023/06/18 02:50:26;;;;;;;8.20;7.40;;;;;;;;;;5000615;28;20445;-77
2023/06/18 02:52:54;;;;;;;8.85;6.90;;;;;;;;;;5003983;28;20778;-76
2023/06/18 02:55:23;;;;;;;8.70;7.80;;;;;;;;;;5002409;28;20911;-76
2023/06/18 02:57:50;;;;;;;8.90;8.10;;;;;;;;;;4994381;28;20605;-76
2023/06/18 03:00:21;;;;;;;8.10;7.40;;;;;;;;;;4991290;28;20889;-76
2023/06/18 03:02:48;;;;;;;8.65;7.85;;;;;;;;;;4991214;28;20497;-76
2023/06/18 03:05:15;;;;;;;8.25;7.45;;;;;;;;;;4997108;28;20462;-76
2023/06/18 03:07:42;;;;;;;8.77;7.90;;;;;;;;;;5004375;28;20854;-76
2023/06/18 03:10:09;;;;;;;8.80;7.90;;;;;;;;;;4993332;28;20442;-76
2023/06/18 03:12:38;;;;;;;8.57;7.78;;;;;;;;;;4993776;28;20460;-75
2023/06/18 03:15:06;;;;;;;7.90;7.18;;;;;;;;;;4996951;28;20429;-76
2023/06/18 03:17:33;;;;;;;8.00;7.30;;;;;;;;;;5001585;28;20472;-76
2023/06/18 03:20:00;;;;;;;8.40;7.50;;;;;;;;;;4996772;28;20435;-76
2023/06/18 03:22:28;;;;;;;8.32;7.53;;;;;;;;;;4998218;28;20431;-76
2023/06/18 03:24:56;;;;;;;8.20;7.40;;;;;;;;;;4993270;28;20517;-76
2023/06/18 03:27:24;;;;;;;8.02;7.30;;;;;;;;;;4998134;28;20441;-76
2023/06/18 03:29:55;;;;;;;8.10;7.40;;;;;;;;;;4990168;28;20555;-76
2023/06/18 03:32:22;;;;;;;7.72;7.03;;;;;;;;;;4993506;28;20474;-76
2023/06/18 03:34:49;;;;;;;8.20;7.50;;;;;;;;;;5003229;28;20429;-76
2023/06/18 03:37:17;;;;;;;8.30;7.32;;;;;;;;;;4990941;28;20417;-76
2023/06/18 03:39:44;;;;;;;7.60;6.90;;;;;;;;;;4994668;28;20479;-76
2023/06/18 03:42:11;;;;;;;8.00;7.20;;;;;;;;;;4992001;28;20994;-76
2023/06/18 03:44:38;;;;;;;7.28;6.60;;;;;;;;;;5003126;28;20529;-76
2023/06/18 03:47:07;;;;;;;7.05;6.35;;;;;;;;;;4999080;28;20445;-77
2023/06/18 03:49:34;;;;;;;8.50;7.80;;;;;;;;;;5002335;28;20433;-76
2023/06/18 03:52:01;;;;;;;7.63;6.82;;;;;;;;;;4993355;28;20423;-76
2023/06/18 03:54:28;;;;;;;7.90;7.10;;;;;;;;;;5003497;28;20427;-76
2023/06/18 03:56:55;;;;;;;7.00;6.40;;;;;;;;;;5000558;28;20501;-76
2023/06/18 03:59:22;;;;;;;8.30;7.50;;;;;;;;;;4989765;28;20453;-76
2023/06/18 04:01:49;;;;;;;7.55;6.75;;;;;;;;;;4994247;28;20522;-76
2023/06/18 04:04:18;;;;;;;7.95;7.15;;;;;;;;;;4997957;28;20425;-76
2023/06/18 04:06:45;;;;;;;7.72;7.00;;;;;;;;;;4999101;28;20590;-76
2023/06/18 04:09:12;;;;;;;8.00;6.70;;;;;;;;;;4998579;28;20426;-76
2023/06/18 04:11:40;;;;;;;8.27;7.43;;;;;;;;;;4997693;28;20451;-76
2023/06/18 04:14:08;;;;;;;7.93;7.22;;;;;;;;;;4987917;28;20881;-76
2023/06/18 04:16:35;;;;;;;8.02;7.30;;;;;;;;;;4992115;28;20463;-76
2023/06/18 04:19:02;;;;;;;7.78;7.00;;;;;;;;;;5001813;28;20882;-76
2023/06/18 04:21:30;;;;;;;7.70;7.00;;;;;;;;;;5002162;28;20880;-76
2023/06/18 04:23:58;;;;;;;8.03;7.23;;;;;;;;;;4994431;28;20492;-76
2023/06/18 04:26:25;;;;;;;7.90;7.13;;;;;;;;;;5000383;28;20441;-76
2023/06/18 04:28:53;;;;;;;8.05;7.15;;;;;;;;;;4995039;28;20518;-77
2023/06/18 04:31:20;;;;;;;7.70;7.00;;;;;;;;;;4992241;28;20437;-76
2023/06/18 04:33:47;;;;;;;8.27;6.90;;;;;;;;;;5001837;28;20427;-75
2023/06/18 04:36:14;;;;;;;7.80;7.10;;;;;;;;;;5000210;28;20425;-75
2023/06/18 04:38:43;;;;;;;7.63;6.90;;;;;;;;;;5002737;28;20524;-76
2023/06/18 04:41:10;;;;;;;7.72;7.03;;;;;;;;;;4988027;28;20943;-75
2023/06/18 04:43:37;;;;;;;7.40;6.68;;;;;;;;;;4995376;28;20918;-75
2023/06/18 04:46:04;;;;;;;7.32;6.63;;;;;;;;;;4999132;28;20484;-77
2023/06/18 04:48:34;;;;;;;7.90;7.20;;;;;;;;;;5003394;28;20429;-75
2023/06/18 04:51:01;;;;;;;7.03;6.33;;;;;;;;;;4998456;28;20432;-75
2023/06/18 04:53:29;;;;;;;7.40;6.70;;;;;;;;;;4998693;28;20421;-77
2023/06/18 04:55:57;;;;;;;7.60;6.80;;;;;;;;;;4997565;28;20481;-75
2023/06/18 04:58:24;;;;;;;6.80;6.20;;;;;;;;;;5000250;28;20439;-76
2023/06/18 05:00:52;;;;;;;7.53;6.70;;;;;;;;;;5000482;28;20946;-76
2023/06/18 05:03:19;;;;;;;6.80;6.20;;;;;;;;;;5000328;28;20734;-75
2023/06/18 05:05:46;;;;;;;8.68;7.10;;;;;;;;;;5000110;28;20799;-75
2023/06/18 05:08:13;;;;;;;8.07;7.30;;;;;;;;;;5001974;28;20537;-75
2023/06/18 05:10:40;;;;;;;7.00;6.40;;;;;;;;;;5000229;28;20546;-75
2023/06/18 05:13:08;;;;;;;7.50;6.80;;;;;;;;;;4990724;28;20422;-75
2023/06/18 05:15:35;;;;;;;7.03;6.43;;;;;;;;;;4989691;28;20481;-75
2023/06/18 05:18:03;;;;;;;6.97;6.30;;;;;;;;;;5002233;28;20414;-75
2023/06/18 05:20:30;;;;;;;7.83;6.70;;;;;;;;;;5001697;28;20511;-76
2023/06/18 05:22:57;;;;;;;7.50;6.72;;;;;;;;;;4995977;28;21089;-75
2023/06/18 05:25:24;;;;;;;7.40;6.70;;;;;;;;;;5001887;28;20432;-75
2023/06/18 05:27:51;;;;;;;7.72;7.03;;;;;;;;;;4992991;28;20895;-77
2023/06/18 05:30:19;;;;;;;7.80;7.00;;;;;;;;;;5001066;28;20516;-76
2023/06/18 05:32:46;;;;;;;7.90;7.20;;;;;;;;;;4987544;28;20426;-75
2023/06/18 05:35:14;;;;;;;7.00;6.30;;;;;;;;;;5002536;28;20505;-76
2023/06/18 05:37:41;;;;;;;7.30;6.60;;;;;;;;;;4983663;28;20891;-75
2023/06/18 05:40:08;;;;;;;7.35;6.65;;;;;;;;;;4992669;28;20448;-71
2023/06/18 05:42:35;;;;;;;10.05;7.13;;;;;;;;;;4988552;28;20438;-66
2023/06/18 05:45:02;;;;;;;7.65;6.68;;;;;;;;;;4991829;28;20544;-64
2023/06/18 05:47:31;;;;;;;6.93;6.22;;;;;;;;;;4999293;28;20903;-64
2023/06/18 05:49:58;;;;;;;7.50;6.80;;;;;;;;;;4993675;28;20495;-65
2023/06/18 05:52:25;;;;;;;7.30;6.60;;;;;;;;;;4997931;28;20419;-65
2023/06/18 05:54:52;;;;;;;7.20;6.50;;;;;;;;;;5013159;28;20497;-65
2023/06/18 05:57:19;;;;;;;7.03;6.43;;;;;;;;;;4989378;28;20451;-66
2023/06/18 05:59:47;;;;;;;7.05;6.38;;;;;;;;;;4999823;28;20421;-68
2023/06/18 06:02:14;;;;;;;6.80;6.20;;;;;;;;;;4996436;28;20505;-67
2023/06/18 06:04:42;;;;;;;7.10;6.50;;;;;;;;;;4994180;28;20516;-68
2023/06/18 06:07:09;;;;;;;7.05;6.35;;;;;;;;;;4994317;28;20858;-67
2023/06/18 06:09:37;;;;;;;8.33;6.50;;;;;;;;;;4991803;28;20524;-68
2023/06/18 06:12:04;;;;;;;7.32;6.63;;;;;;;;;;4997309;28;21127;-63
2023/06/18 06:14:31;;;;;;;6.97;6.28;;;;;;;;;;5000356;28;20428;-64
2023/06/18 06:16:58;;;;;;;7.45;6.75;;;;;;;;;;5008614;28;20470;-65
2023/06/18 06:19:25;;;;;;;7.17;6.57;;;;;;;;;;5007945;28;20444;-64
2023/06/18 06:21:53;;;;;;;7.82;6.63;;;;;;;;;;4991410;28;20504;-63
2023/06/18 06:24:20;;;;;;;8.60;7.80;;;;;;;;;;4988659;28;20436;-63
2023/06/18 06:26:47;;;;;;;6.70;6.00;;;;;;;;;;4990077;28;20584;-63
2023/06/18 06:29:15;;;;;;;7.20;6.55;;;;;;;;;;4989315;28;20440;-63
2023/06/18 06:31:42;;;;;;;7.00;6.38;;;;;;;;;;4998724;28;20803;-64
2023/06/18 06:34:09;;;;;;;7.60;6.90;;;;;;;;;;4992242;28;20890;-63
2023/06/18 06:36:36;;;;;;;6.85;6.15;;;;;;;;;;4991803;28;20420;-64
2023/06/18 06:39:04;;;;;;;6.90;6.20;;;;;;;;;;4986566;28;20420;-65
2023/06/18 06:41:31;;;;;;;6.97;6.38;;;;;;;;;;4998485;28;20437;-64
2023/06/18 06:43:58;;;;;;;6.53;5.95;;;;;;;;;;4989250;28;20804;-64
2023/06/18 06:46:25;;;;;;;7.47;6.27;;;;;;;;;;4992529;28;20450;-66
2023/06/18 06:48:52;;;;;;;6.88;6.28;;;;;;;;;;4999088;28;20440;-64
2023/06/18 06:51:19;;;;;;;6.60;5.90;;;;;;;;;;4999985;28;20452;-66
2023/06/18 06:53:47;;;;;;;6.78;6.18;;;;;;;;;;4996051;28;20425;-65
2023/06/18 06:56:15;;;;;;;7.00;6.30;;;;;;;;;;4995887;28;20464;-68
2023/06/18 06:58:42;;;;;;;6.90;6.30;;;;;;;;;;4996564;28;20443;-66
2023/06/18 07:01:09;;;;;;;6.20;5.70;;;;;;;;;;4995356;28;20437;-66
2023/06/18 07:03:36;;;;;;;6.40;5.90;;;;;;;;;;4995417;28;20804;-66
2023/06/18 07:06:06;;;;;;;6.50;5.90;;;;;;;;;;4981756;28;21452;-65
2023/06/18 07:08:33;;;;;;;6.73;6.03;;;;;;;;;;4995181;28;20966;-64
2023/06/18 07:11:00;;;;;;;6.80;6.20;;;;;;;;;;4995551;28;20412;-65
2023/06/18 07:13:28;;;;;;;6.40;5.80;;;;;;;;;;4993315;28;20471;-65
2023/06/18 07:15:55;;;;;;;6.80;6.20;;;;;;;;;;4990181;28;20475;-66
2023/06/18 07:18:22;;;;;;;6.50;5.90;;;;;;;;;;4993851;28;20895;-66
2023/06/18 07:20:50;;;;;;;6.70;5.68;;;;;;;;;;4981467;28;20426;-65
2023/06/18 07:23:17;;;;;;;6.40;5.85;;;;;;;;;;4999477;28;20759;-65
2023/06/18 07:25:44;;;;;;;5.88;5.38;;;;;;;;;;4993024;28;20841;-65
2023/06/18 07:28:11;;;;;;;6.47;5.88;;;;;;;;;;4993352;28;20434;-66
2023/06/18 07:30:39;;;;;;;6.00;5.50;;;;;;;;;;4989230;28;20992;-66
2023/06/18 07:33:06;;;;;;;6.10;5.50;;;;;;;;;;4995591;28;20433;-66
2023/06/18 07:35:33;;;;;;;6.25;5.72;;;;;;;;;;4997096;28;20428;-65
2023/06/18 07:38:01;;;;;;;6.10;5.60;;;;;;;;;;4993839;28;20530;-64
2023/06/18 07:40:30;;;;;;;5.80;5.30;;;;;;;;;;4983698;28;20426;-65
2023/06/18 07:42:57;;;;;;;5.15;4.72;;;;;;;;;;4998565;28;20513;-65
2023/06/18 07:45:24;;;;;;;6.10;5.50;;;;;;;;;;4995660;28;20472;-65
2023/06/18 07:47:53;;;;;;;5.93;5.43;;;;;;;;;;4992439;28;20426;-65
2023/06/18 07:50:20;;;;;;;5.63;5.13;;;;;;;;;;4995867;28;20441;-64
2023/06/18 07:52:47;;;;;;;6.82;5.63;;;;;;;;;;4996288;28;20445;-65
2023/06/18 07:55:14;;;;;;;5.57;5.07;;;;;;;;;;4999455;28;20588;-65
2023/06/18 07:57:41;;;;;;;5.70;5.20;;;;;;;;;;5002085;28;20452;-64
2023/06/18 08:00:09;;;;;;;5.88;5.38;;;;;;;;;;4990700;28;20445;-65
2023/06/18 08:02:36;;;;;;;6.00;5.22;;;;;;;;;;4999300;28;20765;-64
2023/06/18 08:05:05;;;;;;;5.72;5.00;;;;;;;;;;4990216;28;20505;-64
2023/06/18 08:07:32;;;;;;;6.10;5.50;;;;;;;;;;4995405;28;20498;-64
2023/06/18 08:09:59;;;;;;;5.20;4.80;;;;;;;;;;4995482;28;20433;-63
2023/06/18 08:12:26;;;;;;;5.90;5.40;;;;;;;;;;4999831;28;20553;-65
2023/06/18 08:14:53;;;;;;;5.72;5.22;;;;;;;;;;4996688;28;20492;-63
2023/06/18 08:17:20;;;;;;;5.50;5.00;;;;;;;;;;4995193;28;20908;-64
2023/06/18 08:19:47;;;;;;;5.47;4.97;;;;;;;;;;4993647;28;20490;-64
2023/06/18 08:22:17;;;;;;;6.47;4.95;;;;;;;;;;4995447;28;20454;-62
2023/06/18 08:24:44;;;;;;;5.40;4.97;;;;;;;;;;4994829;28;20433;-62
2023/06/18 08:27:12;;;;;;;5.60;5.10;;;;;;;;;;4998781;28;20520;-64
2023/06/18 08:29:39;;;;;;;5.88;4.90;;;;;;;;;;4992172;28;20457;-63
2023/06/18 08:32:06;;;;;;;5.38;4.88;;;;;;;;;;4997600;28;20437;-63
2023/06/18 08:34:34;;;;;;;5.40;4.90;;;;;;;;;;4994950;28;20483;-64
2023/06/18 08:37:02;;;;;;;5.60;5.10;;;;;;;;;;4993215;28;20433;-75
2023/06/18 08:39:31;;;;;;;5.45;4.95;;;;;;;;;;4994339;28;20843;-74
2023/06/18 08:42:00;;;;;;;5.60;4.53;;;;;;;;;;5002470;28;20432;-75
2023/06/18 08:44:27;;;;;;;5.75;5.10;;;;;;;;;;4999628;28;20452;-76
2023/06/18 08:47:00;;;;;;;5.78;5.28;;;;;;;;;;4994478;28;20445;-79
2023/06/18 08:49:29;;;;;;;4.80;4.40;;;;;;;;;;4999896;28;21754;-77
2023/06/18 08:51:57;;;;;;;4.60;4.20;;;;;;;;;;4991227;28;20450;-76
2023/06/18 08:54:28;;;;;;;4.80;4.30;;;;;;;;;;4997953;28;20421;-77
2023/06/18 08:56:58;;;;;;;5.22;4.72;;;;;;;;;;4997048;28;20913;-78
2023/06/18 08:59:26;;;;;;;4.70;4.30;;;;;;;;;;4999821;28;20919;-77
2023/06/18 09:01:54;;;;;;;5.28;4.78;;;;;;;;;;4998908;28;20432;-77
2023/06/18 09:04:21;;;;;;;4.95;4.47;;;;;;;;;;4998593;28;20475;-78
2023/06/18 09:06:49;;;;;;;4.93;4.43;;;;;;;;;;4996099;28;20431;-78
2023/06/18 09:09:16;;;;;;;4.80;4.40;;;;;;;;;;4997024;28;20439;-78
2023/06/18 09:11:43;;;;;;;4.60;4.20;;;;;;;;;;4995037;28;20433;-78
2023/06/18 09:14:11;;;;;;;4.70;4.30;;;;;;;;;;4994016;28;20441;-78
2023/06/18 09:16:38;;;;;;;4.57;4.18;;;;;;;;;;4997092;28;20464;-78
2023/06/18 09:19:06;;;;;;;4.83;4.43;;;;;;;;;;4997537;28;20435;-78
2023/06/18 09:21:34;;;;;;;4.70;4.30;;;;;;;;;;4994141;28;20850;-77
2023/06/18 09:24:01;;;;;;;4.40;4.10;;;;;;;;;;4988016;28;20538;-78
2023/06/18 09:26:33;;;;;;;4.38;3.97;;;;;;;;;;4998818;28;20445;-78
2023/06/18 09:29:02;;;;;;;4.55;4.15;;;;;;;;;;4993783;28;20432;-78
2023/06/18 09:31:31;;;;;;;4.60;4.15;;;;;;;;;;4996678;28;20520;-79
2023/06/18 09:33:59;;;;;;;4.35;3.95;;;;;;;;;;4994526;28;20488;-79
2023/06/18 09:36:26;;;;;;;4.00;3.70;;;;;;;;;;5001069;28;20865;-79
2023/06/18 09:38:54;;;;;;;4.47;4.07;;;;;;;;;;4993757;28;20446;-78
2023/06/18 09:41:22;;;;;;;4.53;4.10;;;;;;;;;;4995025;28;20435;-79
2023/06/18 09:43:50;;;;;;;4.20;3.90;;;;;;;;;;4992209;28;20439;-78
2023/06/18 09:46:18;;;;;;;4.18;3.78;;;;;;;;;;5003749;22;20446;-76
2023/06/18 09:48:47;;;;;;;4.90;4.10;;;;;;;;;;4990315;28;20434;-77
2023/06/18 09:51:15;;;;;;;4.65;4.25;;;;;;;;;;4989595;28;20439;-78
2023/06/18 09:53:42;;;;;;;4.97;4.00;;;;;;;;;;5011314;28;20800;-76
2023/06/18 09:56:10;;;;;;;4.00;3.70;;;;;;;;;;4982536;28;20779;-74
2023/06/18 09:58:41;;;;;;;4.70;4.30;;;;;;;;;;4986259;28;20438;-73
2023/06/18 10:01:08;;;;;;;4.15;3.85;;;;;;;;;;4980046;28;20438;-73
2023/06/18 10:03:35;;;;;;;5.32;4.20;;;;;;;;;;4982630;28;20465;-70
2023/06/18 10:06:10;;;;;;;4.33;3.93;;;;;;;;;;4983949;28;20430;-70
2023/06/18 10:08:37;;;;;;;5.00;3.88;;;;;;;;;;4982046;28;20434;-71
2023/06/18 10:11:05;;;;;;;5.20;3.95;;;;;;;;;;4982705;28;20446;-71
2023/06/18 10:13:32;;;;;;;4.40;4.00;;;;;;;;;;4985226;28;20454;-72
2023/06/18 10:16:00;;;;;;;4.17;3.77;;;;;;;;;;4976540;28;21149;-71
2023/06/18 10:18:27;;;;;;;4.40;4.00;;;;;;;;;;4980903;28;20466;-69
2023/06/18 10:20:56;;;;;;;5.00;4.32;;;;;;;;;;4990055;28;20438;-73
2023/06/18 10:23:25;;;;;;;4.65;4.25;;;;;;;;;;5010651;28;20453;-72
2023/06/18 10:25:53;;;;;;;3.90;3.60;;;;;;;;;;4987760;28;20438;-73
2023/06/18 10:28:20;;;;;;;4.38;3.97;;;;;;;;;;4981020;28;20430;-69
2023/06/18 10:30:50;;;;;;;4.60;4.10;;;;;;;;;;4982974;28;20770;-76
2023/06/18 10:33:17;;;;;;;4.80;4.00;;;;;;;;;;4982864;28;20470;-76
2023/06/18 10:35:44;;;;;;;4.43;3.97;;;;;;;;;;4986285;28;20446;-75
2023/06/18 10:38:11;;;;;;;4.90;3.90;;;;;;;;;;4982856;28;20424;-76
2023/06/18 10:40:40;;;;;;;4.55;3.90;;;;;;;;;;4987290;28;20427;-74
2023/06/18 10:43:08;;;;;;;4.55;4.00;;;;;;;;;;4993130;28;20950;-77
2023/06/18 10:45:35;;;;;;;4.60;4.05;;;;;;;;;;4990528;28;20435;-73
2023/06/18 10:48:15;;;;;;;4.10;3.70;;;;;;;;;;4985827;28;20418;-74
2023/06/18 10:50:42;;;;;;;4.30;3.90;;;;;;;;;;4994515;28;20802;-73
2023/06/18 10:53:22;;;;;;;4.10;3.70;;;;;;;;;;4981286;28;20438;-68
2023/06/18 10:55:58;;;;;;;5.30;3.88;;;;;;;;;;4976501;28;20920;-67
2023/06/18 10:58:33;;;;;;;4.53;4.13;;;;;;;;;;4988773;28;20475;-70
2023/06/18 11:01:00;;;;;;;5.05;4.40;;;;;;;;;;4980191;28;20859;-71
2023/06/18 11:03:34;;;;;;;5.20;4.05;;;;;;;;;;5020035;28;20438;-69
2023/06/18 11:06:02;;;;;;;4.35;3.95;;;;;;;;;;4993099;28;20524;-69
2023/06/18 11:08:31;;;;;;;4.43;3.90;;;;;;;;;;4987368;28;20514;-68
2023/06/18 11:11:06;;;;;;;4.93;4.43;;;;;;;;;;5006056;28;20437;-72
2023/06/18 11:13:37;;;;;;;4.68;4.00;;;;;;;;;;4986621;28;20419;-71
2023/06/18 11:16:15;;;;;;;4.28;3.70;;;;;;;;;;4980473;28;20902;-73
2023/06/18 11:18:43;;;;;;;5.00;3.60;;;;;;;;;;4988783;28;20475;-72
2023/06/18 11:21:15;;;;;;;4.38;3.50;;;;;;;;;;4980628;28;20472;-71
2023/06/18 11:23:42;;;;;;;4.00;3.60;;;;;;;;;;4978167;28;20706;-71
2023/06/18 11:26:15;;;;;;;3.50;3.20;;;;;;;;;;4973792;28;21030;-70
2023/06/18 11:28:42;;;;;;;3.85;3.55;;;;;;;;;;4993677;28;20916;-72
2023/06/18 11:31:09;;;;;;;3.60;3.30;;;;;;;;;;4983542;28;20474;-71
2023/06/18 11:33:36;;;;;;;4.17;3.87;;;;;;;;;;4986613;28;20433;-70
2023/06/18 11:36:10;;;;;;;4.90;3.30;;;;;;;;;;4985324;28;21544;-70
2023/06/18 11:38:37;;;;;;;3.80;3.50;;;;;;;;;;4986870;28;20912;-70
2023/06/18 11:41:05;;;;;;;5.20;3.60;;;;;;;;;;4984717;28;20488;-71
2023/06/18 11:43:46;;;;;;;4.20;3.90;;;;;;;;;;4986632;28;20462;-71
2023/06/18 11:46:27;;;;;;;4.50;4.10;;;;;;;;;;4985919;28;20917;-70
2023/06/18 11:48:55;;;;;;;4.20;3.80;;;;;;;;;;4989518;28;20435;-70
2023/06/18 11:51:24;;;;;;;5.75;4.00;;;;;;;;;;4987203;28;20446;-69
2023/06/18 11:53:52;;;;;;;4.50;3.90;;;;;;;;;;4987438;28;20466;-71
2023/06/18 11:56:22;;;;;;;4.30;3.90;;;;;;;;;;4983424;28;20462;-71
2023/06/18 11:58:50;;;;;;;4.30;3.90;;;;;;;;;;4990820;28;21196;-70
2023/06/18 12:01:17;;;;;;;4.90;3.63;;;;;;;;;;4984500;28;20438;-72
2023/06/18 12:03:44;;;;;;;4.40;4.00;;;;;;;;;;4999694;28;20920;-71
2023/06/18 12:06:15;;;;;;;5.00;3.88;;;;;;;;;;5032052;28;20442;-70
2023/06/18 12:08:45;;;;;;;4.20;3.80;;;;;;;;;;4985595;28;20442;-70
2023/06/18 12:11:16;;;;;;;4.50;4.10;;;;;;;;;;4977090;28;20920;-72
2023/06/18 12:13:44;;;;;;;4.20;3.80;;;;;;;;;;4989989;28;20430;-73
2023/06/18 12:16:16;;;;;;;4.10;3.80;;;;;;;;;;4986750;28;21983;-73
2023/06/18 12:18:45;;;;;;;4.57;4.18;;;;;;;;;;4987803;28;20434;-71
2023/06/18 12:21:12;;;;;;;4.20;3.90;;;;;;;;;;4983824;28;20428;-72
2023/06/18 12:23:39;;;;;;;4.30;3.90;;;;;;;;;;4980857;28;20431;-72
2023/06/18 12:26:07;;;;;;;4.50;4.10;;;;;;;;;;4988466;28;20439;-72
2023/06/18 12:28:34;;;;;;;3.80;3.50;;;;;;;;;;4988558;28;20426;-73
2023/06/18 12:31:07;;;;;;;3.90;3.60;;;;;;;;;;4987445;28;20434;-72
2023/06/18 12:33:41;;;;;;;4.13;3.73;;;;;;;;;;4991644;28;20426;-71
2023/06/18 12:36:08;;;;;;;4.20;3.80;;;;;;;;;;4987769;28;20434;-71
2023/06/18 12:38:40;;;;;;;4.07;3.67;;;;;;;;;;4988521;28;20418;-71
2023/06/18 12:41:08;;;;;;;4.00;3.70;;;;;;;;;;4988890;28;20426;-72
2023/06/18 12:43:39;;;;;;;4.07;3.78;;;;;;;;;;4989254;28;20427;-71
2023/06/18 12:46:07;;;;;;;3.80;3.50;;;;;;;;;;4992505;28;20441;-73
2023/06/18 12:48:40;;;;;;;4.30;3.90;;;;;;;;;;4980515;28;20531;-73
2023/06/18 12:51:07;;;;;;;4.00;3.70;;;;;;;;;;4985449;28;20492;-72
2023/06/18 12:53:34;;;;;;;4.00;3.67;;;;;;;;;;4986827;28;20449;-72
2023/06/18 12:56:17;;;;;;;4.38;3.90;;;;;;;;;;4990639;28;20423;-72
2023/06/18 12:58:45;;;;;;;4.68;4.18;;;;;;;;;;4993878;28;20491;-71
2023/06/18 13:01:12;;;;;;;4.60;4.20;;;;;;;;;;5006915;28;20435;-72
2023/06/18 13:03:41;;;;;;;4.30;3.90;;;;;;;;;;4980596;28;20448;-73
2023/06/18 13:06:08;;;;;;;4.40;4.00;;;;;;;;;;4980737;28;20454;-72
2023/06/18 13:08:36;;;;;;;4.35;3.95;;;;;;;;;;4988644;28;20450;-71
2023/06/18 13:11:04;;;;;;;4.50;4.15;;;;;;;;;;4991133;28;20442;-73
2023/06/18 13:13:31;;;;;;;4.60;4.20;;;;;;;;;;4988104;28;20442;-75
2023/06/18 13:15:58;;;;;;;4.50;4.20;;;;;;;;;;4982942;28;20434;-74
2023/06/18 13:18:26;;;;;;;4.65;4.25;;;;;;;;;;4985878;28;20471;-73
2023/06/18 13:20:56;;;;;;;5.07;4.28;;;;;;;;;;4981181;28;20502;-73
2023/06/18 13:23:23;;;;;;;4.93;4.50;;;;;;;;;;4987136;28;20509;-73
2023/06/18 13:25:50;;;;;;;4.97;4.50;;;;;;;;;;4990794;28;20429;-72
2023/06/18 13:28:19;;;;;;;5.00;4.60;;;;;;;;;;4985699;28;20440;-74
2023/06/18 13:30:47;;;;;;;5.20;4.80;;;;;;;;;;4984588;28;20513;-74
2023/06/18 13:33:14;;;;;;;4.55;4.20;;;;;;;;;;4989149;28;20522;-73
2023/06/18 13:35:41;;;;;;;5.07;4.67;;;;;;;;;;4987792;28;20414;-75
2023/06/18 13:38:10;;;;;;;4.70;4.30;;;;;;;;;;4986404;28;20947;-74
2023/06/18 13:40:37;;;;;;;4.80;4.40;;;;;;;;;;4976747;28;20435;-74
2023/06/18 13:43:04;;;;;;;4.30;3.90;;;;;;;;;;4998286;28;20429;-72
2023/06/18 13:45:31;;;;;;;5.20;4.00;;;;;;;;;;4996707;28;20435;-73
2023/06/18 13:47:58;;;;;;;4.40;4.00;;;;;;;;;;4987932;28;20420;-71
2023/06/18 13:50:26;;;;;;;4.40;3.60;;;;;;;;;;4982086;28;20424;-70
2023/06/18 13:52:53;;;;;;;4.50;4.10;;;;;;;;;;4987570;28;20442;-71
2023/06/18 13:55:21;;;;;;;5.00;3.80;;;;;;;;;;4992118;28;20789;-74
2023/06/18 13:57:48;;;;;;;4.60;4.20;;;;;;;;;;4992523;28;20429;-74
2023/06/18 14:00:16;;;;;;;4.80;4.40;;;;;;;;;;4985902;28;20438;-73
2023/06/18 14:02:43;;;;;;;4.20;3.80;;;;;;;;;;4982761;28;20449;-74
2023/06/18 14:05:10;;;;;;;4.80;4.30;;;;;;;;;;4983661;28;20429;-73
2023/06/18 14:07:37;;;;;;;4.28;3.97;;;;;;;;;;4993294;28;20435;-73
2023/06/18 14:10:05;;;;;;;3.97;3.58;;;;;;;;;;4985466;28;20916;-74
2023/06/18 14:12:33;;;;;;;4.25;3.85;;;;;;;;;;4985835;28;20496;-76
2023/06/18 14:15:00;;;;;;;3.97;3.67;;;;;;;;;;4986473;28;20442;-73
2023/06/18 14:17:28;;;;;;;4.10;3.80;;;;;;;;;;4987317;28;20418;-72
2023/06/18 14:19:55;;;;;;;4.30;3.90;;;;;;;;;;4984371;28;20648;-74
2023/06/18 14:22:22;;;;;;;4.25;3.85;;;;;;;;;;4981406;28;20680;-73
2023/06/18 14:24:52;;;;;;;4.50;4.00;;;;;;;;;;4978473;28;20951;-74
2023/06/18 14:27:19;;;;;;;4.03;3.63;;;;;;;;;;4984877;28;20979;-73
2023/06/18 14:29:49;;;;;;;3.80;3.50;;;;;;;;;;4978403;28;20785;-72
2023/06/18 14:32:16;;;;;;;3.80;3.50;;;;;;;;;;4985578;28;20438;-75
2023/06/18 14:34:43;;;;;;;3.65;3.35;;;;;;;;;;4984950;28;20645;-73
2023/06/18 14:37:10;;;;;;;4.20;3.83;;;;;;;;;;4983963;28;20946;-71
2023/06/18 14:39:37;;;;;;;5.53;3.30;;;;;;;;;;4985858;28;20438;-73
2023/06/18 14:42:04;;;;;;;5.80;4.38;;;;;;;;;;4985956;28;20453;-74
2023/06/18 14:44:32;;;;;;;4.10;3.80;;;;;;;;;;4983459;28;20440;-73
2023/06/18 14:47:00;;;;;;;4.50;4.10;;;;;;;;;;4977913;28;20434;-73
2023/06/18 14:49:27;;;;;;;4.90;4.50;;;;;;;;;;4983382;28;20440;-74